Thunderstorms From: 26-05-2018 05:06 Until: 27-05-2018 05:00 warning for: Thunderstorms Level: Yellow info button

Although rather usual in this region, locally or potentially dangerous phenomena are expected. (such as local winds, summer thunderstorms, rising streams or high waves) Be aware and pay attention to the latest weather updates, especially if you carry out activities exposed to weather or close to a stream or shoreline. 


Meteo18 Weather Cam more information Meteo18 Weather Cam


warning for Thunderstorms more information blitzortung!


Rain radar more information rain snow radar


Visit our other weather sites:

Template documentation
and downloads

And another site



Weather Underground History page Text

Daily Summary for December 10, 2017 Units:  Both    English   Metric
« Previous Day
Next Day »
Daily Weekly Monthly Yearly Custom
  High: Low: Average:
Temperature: TemperatureC °F /  -17.8 °C 0.4 °F /  -17.6 °C 6 °F /  -14.4 °C
Dew Point: DewpointC °F /  -17.8 °C -0.9 °F /  -18.3 °C 4.4 °F /  -15.3 °C
Humidity: Humidity % 75 % 90 %
Wind Speed: WindSpeedKMH mph /  0 km/h - 13.6 mph /  21.9 km/h
Wind Gust: WindSpeedGustKMH mph /  0 km/h - -
Wind:- - SSW
Pressure: PressurehPa in /  0 hPa 985.7 in /  33375.8 hPa -
Precipitation: 20.6 in /  523.24 mm    
Historical Graphs
 
 
Tabular Data for December 10, 2017
Time Temperature Dew Point Pressure Wind Wind Speed Wind Gust Humidity Rainfall Rate (Hourly)
TemperatureC °F /  -17.8 °C DewpointC °F /  -17.8 °C PressurehPa in /  0 hPa Calm     Humidity % HourlyPrecipMM in /  0 mm
00:02 0.6 °F /  -17.4 °C -0.3 °F /  -17.9 °C 1013.1 in /  34303.6 hPa South 1.6 mph /  2.6 km/h 3.2 mph /  5.1 km/h 94 % 0.0 in /  0 mm
00:07 0.7 °F /  -17.4 °C -0.3 °F /  -17.9 °C 1013.1 in /  34303.6 hPa Calm   3.2 mph /  5.1 km/h 93 % 0.0 in /  0 mm
00:12 0.7 °F /  -17.4 °C -0.3 °F /  -17.9 °C 1013.1 in /  34303.6 hPa Calm   3.2 mph /  5.1 km/h 93 % 0.0 in /  0 mm
00:17 0.8 °F /  -17.3 °C -0.2 °F /  -17.9 °C 1012.8 in /  34293.4 hPa Calm   8.0 mph /  12.9 km/h 93 % 0.0 in /  0 mm
00:22 0.8 °F /  -17.3 °C -0.2 °F /  -17.9 °C 1012.8 in /  34293.4 hPa SSW 1.6 mph /  2.6 km/h 8.0 mph /  12.9 km/h 93 % 0.0 in /  0 mm
00:27 0.9 °F /  -17.3 °C -0.3 °F /  -17.9 °C 1012.8 in /  34293.4 hPa SSW 1.6 mph /  2.6 km/h 8.0 mph /  12.9 km/h 92 % 0.0 in /  0 mm
00:42 0.9 °F /  -17.3 °C -0.3 °F /  -17.9 °C 1012.4 in /  34279.9 hPa SW 3.2 mph /  5.1 km/h 4.8 mph /  7.7 km/h 92 % 0.0 in /  0 mm
00:47 0.9 °F /  -17.3 °C -0.3 °F /  -17.9 °C 1012.1 in /  34269.7 hPa SSW 1.6 mph /  2.6 km/h 4.8 mph /  7.7 km/h 92 % 0.0 in /  0 mm
00:52 0.8 °F /  -17.3 °C -0.4 °F /  -18 °C 1012.1 in /  34269.7 hPa SSE 1.6 mph /  2.6 km/h 4.8 mph /  7.7 km/h 92 % 0.0 in /  0 mm
01:07 0.9 °F /  -17.3 °C -0.4 °F /  -18 °C 1011.4 in /  34246 hPa SW 1.6 mph /  2.6 km/h 6.4 mph /  10.3 km/h 91 % 0.0 in /  0 mm
01:12 0.9 °F /  -17.3 °C -0.4 °F /  -18 °C 1011.4 in /  34246 hPa Calm   4.8 mph /  7.7 km/h 91 % 0.0 in /  0 mm
01:17 0.8 °F /  -17.3 °C -0.5 °F /  -18.1 °C 1011.1 in /  34235.8 hPa Calm   3.2 mph /  5.1 km/h 91 % 0.0 in /  0 mm
01:22 0.9 °F /  -17.3 °C -0.4 °F /  -18 °C 1011.1 in /  34235.8 hPa SSE 1.6 mph /  2.6 km/h 4.8 mph /  7.7 km/h 91 % 0.0 in /  0 mm
01:32 0.9 °F /  -17.3 °C -0.6 °F /  -18.1 °C 1010.4 in /  34212.1 hPa Calm   4.8 mph /  7.7 km/h 90 % 0.0 in /  0 mm
01:37 0.9 °F /  -17.3 °C -0.6 °F /  -18.1 °C 1010.7 in /  34222.3 hPa Calm   4.8 mph /  7.7 km/h 90 % 0.0 in /  0 mm
01:42 0.9 °F /  -17.3 °C -0.6 °F /  -18.1 °C 1010.0 in /  34198.6 hPa SE 1.6 mph /  2.6 km/h 4.8 mph /  7.7 km/h 90 % 0.0 in /  0 mm
01:47 0.9 °F /  -17.3 °C -0.6 °F /  -18.1 °C 1009.7 in /  34188.4 hPa Calm   6.4 mph /  10.3 km/h 90 % 0.0 in /  0 mm
01:52 0.9 °F /  -17.3 °C -0.6 °F /  -18.1 °C 1010.0 in /  34198.6 hPa Calm   8.0 mph /  12.9 km/h 90 % 0.0 in /  0 mm
01:57 0.9 °F /  -17.3 °C -0.6 °F /  -18.1 °C 1009.7 in /  34188.4 hPa South 3.2 mph /  5.1 km/h 8.0 mph /  12.9 km/h 90 % 0.0 in /  0 mm
02:02 0.9 °F /  -17.3 °C -0.6 °F /  -18.1 °C 1009.4 in /  34178.3 hPa Calm   9.7 mph /  15.6 km/h 90 % 0.0 in /  0 mm
02:12 1.0 °F /  -17.2 °C -0.6 °F /  -18.1 °C 1009.4 in /  34178.3 hPa SSE 3.2 mph /  5.1 km/h 9.7 mph /  15.6 km/h 89 % 0.0 in /  0 mm
02:22 1.1 °F /  -17.2 °C -0.5 °F /  -18.1 °C 1008.7 in /  34154.6 hPa South 3.2 mph /  5.1 km/h 14.5 mph /  23.3 km/h 89 % 0.0 in /  0 mm
02:32 1.2 °F /  -17.1 °C -0.6 °F /  -18.1 °C 1008.4 in /  34144.4 hPa SSE 3.2 mph /  5.1 km/h 20.9 mph /  33.6 km/h 88 % 0.0 in /  0 mm
02:37 1.2 °F /  -17.1 °C -0.6 °F /  -18.1 °C 1008.0 in /  34130.9 hPa South 4.8 mph /  7.7 km/h 20.9 mph /  33.6 km/h 88 % 0.0 in /  0 mm
02:42 1.2 °F /  -17.1 °C -0.6 °F /  -18.1 °C 1008.0 in /  34130.9 hPa SE 9.7 mph /  15.6 km/h 20.9 mph /  33.6 km/h 88 % 0.0 in /  0 mm
02:47 1.2 °F /  -17.1 °C -0.6 °F /  -18.1 °C 1007.7 in /  34120.7 hPa SSE 4.8 mph /  7.7 km/h 12.9 mph /  20.8 km/h 88 % 0.0 in /  0 mm
02:52 1.2 °F /  -17.1 °C -0.6 °F /  -18.1 °C 1007.7 in /  34120.7 hPa SSE 6.4 mph /  10.3 km/h 11.3 mph /  18.2 km/h 88 % 0.0 in /  0 mm
03:02 1.3 °F /  -17.1 °C -0.6 °F /  -18.1 °C 1007.3 in /  34107.2 hPa SE 1.6 mph /  2.6 km/h 14.5 mph /  23.3 km/h 87 % 0.0 in /  0 mm
03:12 1.3 °F /  -17.1 °C -0.6 °F /  -18.1 °C 1007.0 in /  34097 hPa SE 4.8 mph /  7.7 km/h 12.9 mph /  20.8 km/h 87 % 0.0 in /  0 mm
03:22 1.4 °F /  -17 °C -0.7 °F /  -18.2 °C 1006.7 in /  34086.9 hPa SSE 3.2 mph /  5.1 km/h 17.7 mph /  28.5 km/h 86 % 0.0 in /  0 mm
03:27 1.4 °F /  -17 °C -0.7 °F /  -18.2 °C 1006.7 in /  34086.9 hPa SSE 3.2 mph /  5.1 km/h 17.7 mph /  28.5 km/h 86 % 0.0 in /  0 mm
03:37 1.3 °F /  -17.1 °C -0.6 °F /  -18.1 °C 1006.3 in /  34073.3 hPa SE 4.8 mph /  7.7 km/h 17.7 mph /  28.5 km/h 87 % 0.0 in /  0 mm
03:52 0.9 °F /  -17.3 °C -0.7 °F /  -18.2 °C 1005.6 in /  34049.6 hPa SE 3.2 mph /  5.1 km/h 17.7 mph /  28.5 km/h 89 % 0.0 in /  0 mm
03:57 0.8 °F /  -17.3 °C -0.7 °F /  -18.2 °C 1005.6 in /  34049.6 hPa SSW 4.8 mph /  7.7 km/h 17.7 mph /  28.5 km/h 90 % 0.0 in /  0 mm
04:02 0.7 °F /  -17.4 °C -0.8 °F /  -18.2 °C 1005.3 in /  34039.5 hPa SE 3.2 mph /  5.1 km/h 17.7 mph /  28.5 km/h 90 % 0.0 in /  0 mm
04:07 0.6 °F /  -17.4 °C -0.9 °F /  -18.3 °C 1004.6 in /  34015.8 hPa ESE 14.5 mph /  23.3 km/h 16.1 mph /  25.9 km/h 90 % 0.0 in /  0 mm
04:12 0.6 °F /  -17.4 °C -0.7 °F /  -18.2 °C 1004.3 in /  34005.6 hPa SE 4.8 mph /  7.7 km/h 16.1 mph /  25.9 km/h 91 % 0.0 in /  0 mm
04:22 0.4 °F /  -17.6 °C -0.7 °F /  -18.2 °C 1003.9 in /  33992.1 hPa SE 4.8 mph /  7.7 km/h 17.7 mph /  28.5 km/h 92 % 0.0 in /  0 mm
04:27 0.4 °F /  -17.6 °C -0.7 °F /  -18.2 °C 1003.6 in /  33981.9 hPa ESE 4.8 mph /  7.7 km/h 17.7 mph /  28.5 km/h 92 % 0.0 in /  0 mm
04:32 0.4 °F /  -17.6 °C -0.7 °F /  -18.2 °C 1003.6 in /  33981.9 hPa SSE 3.2 mph /  5.1 km/h 14.5 mph /  23.3 km/h 92 % 0.0 in /  0 mm
04:42 0.4 °F /  -17.6 °C -0.6 °F /  -18.1 °C 1002.9 in /  33958.2 hPa SSE 4.8 mph /  7.7 km/h 12.9 mph /  20.8 km/h 93 % 0.0 in /  0 mm
04:47 0.4 °F /  -17.6 °C -0.6 °F /  -18.1 °C 1002.9 in /  33958.2 hPa Calm   12.9 mph /  20.8 km/h 93 % 0.0 in /  0 mm
04:52 0.4 °F /  -17.6 °C -0.6 °F /  -18.1 °C 1002.6 in /  33948 hPa SSE 1.6 mph /  2.6 km/h 12.9 mph /  20.8 km/h 93 % 0.0 in /  0 mm
04:57 0.4 °F /  -17.6 °C -0.5 °F /  -18.1 °C 1002.6 in /  33948 hPa South 6.4 mph /  10.3 km/h 11.3 mph /  18.2 km/h 94 % 0.0 in /  0 mm
05:02 0.4 °F /  -17.6 °C -0.5 °F /  -18.1 °C 1002.3 in /  33937.9 hPa SE 11.3 mph /  18.2 km/h 11.3 mph /  18.2 km/h 94 % 0.0 in /  0 mm
05:12 0.4 °F /  -17.6 °C -0.3 °F /  -17.9 °C 1001.6 in /  33914.2 hPa SE 6.4 mph /  10.3 km/h 16.1 mph /  25.9 km/h 95 % 0.5 in /  12.7 mm
05:17 0.4 °F /  -17.6 °C -0.3 °F /  -17.9 °C 1001.2 in /  33900.6 hPa SSE 4.8 mph /  7.7 km/h 17.7 mph /  28.5 km/h 95 % 0.8 in /  20.32 mm
05:27 0.4 °F /  -17.6 °C -0.3 °F /  -17.9 °C 1001.2 in /  33900.6 hPa SSE 4.8 mph /  7.7 km/h 17.7 mph /  28.5 km/h 95 % 1.0 in /  25.4 mm
05:32 0.5 °F /  -17.5 °C -0.2 °F /  -17.9 °C 1000.9 in /  33890.5 hPa SSE 3.2 mph /  5.1 km/h 17.7 mph /  28.5 km/h 95 % 1.0 in /  25.4 mm
05:37 0.5 °F /  -17.5 °C -0.2 °F /  -17.9 °C 1000.6 in /  33880.3 hPa SE 4.8 mph /  7.7 km/h 17.7 mph /  28.5 km/h 95 % 1.3 in /  33.02 mm
05:42 0.6 °F /  -17.4 °C -0.1 °F /  -17.8 °C 1000.2 in /  33866.8 hPa SE 9.7 mph /  15.6 km/h 17.7 mph /  28.5 km/h 95 % 1.5 in /  38.1 mm
05:52 0.6 °F /  -17.4 °C 0.0 °F /  -17.8 °C 999.9 in /  33856.6 hPa SE 16.1 mph /  25.9 km/h 17.7 mph /  28.5 km/h 96 % 1.5 in /  38.1 mm
06:02 0.7 °F /  -17.4 °C 0.1 °F /  -17.7 °C 999.5 in /  33843.1 hPa SSE 4.8 mph /  7.7 km/h 19.3 mph /  31.1 km/h 96 % 1.5 in /  38.1 mm
06:12 0.8 °F /  -17.3 °C 0.2 °F /  -17.7 °C 998.9 in /  33822.8 hPa SW 11.3 mph /  18.2 km/h 17.7 mph /  28.5 km/h 96 % 1.8 in /  45.72 mm
06:17 0.9 °F /  -17.3 °C 0.3 °F /  -17.6 °C 998.9 in /  33822.8 hPa SSE 6.4 mph /  10.3 km/h 19.3 mph /  31.1 km/h 96 % 1.8 in /  45.72 mm
06:32 1.1 °F /  -17.2 °C 0.5 °F /  -17.5 °C 998.5 in /  33809.2 hPa South 6.4 mph /  10.3 km/h 20.9 mph /  33.6 km/h 96 % 1.8 in /  45.72 mm
06:42 1.2 °F /  -17.1 °C 0.6 °F /  -17.4 °C 997.9 in /  33788.9 hPa SSE 4.8 mph /  7.7 km/h 20.9 mph /  33.6 km/h 96 % 2.0 in /  50.8 mm
06:47 1.2 °F /  -17.1 °C 0.6 °F /  -17.4 °C 997.9 in /  33788.9 hPa South 8.0 mph /  12.9 km/h 19.3 mph /  31.1 km/h 96 % 2.3 in /  58.42 mm
06:52 1.3 °F /  -17.1 °C 0.7 °F /  -17.4 °C 997.5 in /  33775.4 hPa South 9.7 mph /  15.6 km/h 19.3 mph /  31.1 km/h 96 % 2.3 in /  58.42 mm
07:02 1.3 °F /  -17.1 °C 0.7 °F /  -17.4 °C 997.2 in /  33765.2 hPa SSW 3.2 mph /  5.1 km/h 17.7 mph /  28.5 km/h 96 % 2.5 in /  63.5 mm
07:12 1.4 °F /  -17 °C 0.8 °F /  -17.3 °C 996.8 in /  33751.6 hPa SSE 4.8 mph /  7.7 km/h 16.1 mph /  25.9 km/h 96 % 2.8 in /  71.12 mm
07:17 1.4 °F /  -17 °C 0.8 °F /  -17.3 °C 996.8 in /  33751.6 hPa SSE 3.2 mph /  5.1 km/h 17.7 mph /  28.5 km/h 96 % 3.0 in /  76.2 mm
07:22 1.5 °F /  -16.9 °C 1.1 °F /  -17.2 °C 996.5 in /  33741.5 hPa SSE 6.4 mph /  10.3 km/h 17.7 mph /  28.5 km/h 97 % 3.0 in /  76.2 mm
07:32 1.6 °F /  -16.9 °C 1.2 °F /  -17.1 °C 996.2 in /  33731.3 hPa South 4.8 mph /  7.7 km/h 17.7 mph /  28.5 km/h 97 % 3.3 in /  83.82 mm
07:37 1.6 °F /  -16.9 °C 1.2 °F /  -17.1 °C 995.8 in /  33717.8 hPa SSE 9.7 mph /  15.6 km/h 19.3 mph /  31.1 km/h 97 % 3.3 in /  83.82 mm
07:42 1.7 °F /  -16.8 °C 1.3 °F /  -17.1 °C 995.5 in /  33707.6 hPa SSE 8.0 mph /  12.9 km/h 19.3 mph /  31.1 km/h 97 % 3.3 in /  83.82 mm
07:47 1.8 °F /  -16.8 °C 1.4 °F /  -17 °C 995.5 in /  33707.6 hPa South 8.0 mph /  12.9 km/h 20.9 mph /  33.6 km/h 97 % 3.3 in /  83.82 mm
07:52 1.8 °F /  -16.8 °C 1.4 °F /  -17 °C 995.1 in /  33694.1 hPa SSW 6.4 mph /  10.3 km/h 20.9 mph /  33.6 km/h 97 % 3.6 in /  91.44 mm
07:57 1.9 °F /  -16.7 °C 1.5 °F /  -16.9 °C 994.8 in /  33683.9 hPa SSE 4.8 mph /  7.7 km/h 17.7 mph /  28.5 km/h 97 % 3.6 in /  91.44 mm
08:02 2.0 °F /  -16.7 °C 1.6 °F /  -16.9 °C 994.8 in /  33683.9 hPa SSW 4.8 mph /  7.7 km/h 17.7 mph /  28.5 km/h 97 % 3.6 in /  91.44 mm
08:12 2.1 °F /  -16.6 °C 1.7 °F /  -16.8 °C 994.5 in /  33673.8 hPa SSE 6.4 mph /  10.3 km/h 16.1 mph /  25.9 km/h 97 % 3.6 in /  91.44 mm
08:17 2.2 °F /  -16.6 °C 1.8 °F /  -16.8 °C 994.1 in /  33660.2 hPa SSW 3.2 mph /  5.1 km/h 19.3 mph /  31.1 km/h 97 % 3.6 in /  91.44 mm
08:22 2.3 °F /  -16.5 °C 1.9 °F /  -16.7 °C 994.1 in /  33660.2 hPa SSE 3.2 mph /  5.1 km/h 19.3 mph /  31.1 km/h 97 % 4.1 in /  104.14 mm
08:27 2.3 °F /  -16.5 °C 1.9 °F /  -16.7 °C 994.1 in /  33660.2 hPa South 3.2 mph /  5.1 km/h 19.3 mph /  31.1 km/h 97 % 4.1 in /  104.14 mm
08:32 2.4 °F /  -16.4 °C 2.0 °F /  -16.7 °C 993.8 in /  33650.1 hPa SSE 4.8 mph /  7.7 km/h 19.3 mph /  31.1 km/h 97 % 4.1 in /  104.14 mm
08:42 2.7 °F /  -16.3 °C 2.3 °F /  -16.5 °C 993.5 in /  33639.9 hPa SSE 3.2 mph /  5.1 km/h 12.9 mph /  20.8 km/h 97 % 4.1 in /  104.14 mm
08:47 2.8 °F /  -16.2 °C 2.4 °F /  -16.4 °C 993.1 in /  33626.4 hPa SSE 1.6 mph /  2.6 km/h 12.9 mph /  20.8 km/h 97 % 3.6 in /  91.44 mm
08:52 2.9 °F /  -16.2 °C 2.5 °F /  -16.4 °C 993.1 in /  33626.4 hPa SSE 1.6 mph /  2.6 km/h 12.9 mph /  20.8 km/h 97 % 3.6 in /  91.44 mm
08:57 3.3 °F /  -15.9 °C 2.9 °F /  -16.2 °C 992.8 in /  33616.2 hPa South 3.2 mph /  5.1 km/h 12.9 mph /  20.8 km/h 97 % 3.3 in /  83.82 mm
09:02 3.7 °F /  -15.7 °C 3.4 °F /  -15.9 °C 992.8 in /  33616.2 hPa South 3.2 mph /  5.1 km/h 12.9 mph /  20.8 km/h 98 % 3.3 in /  83.82 mm
09:12 4.9 °F /  -15.1 °C 4.6 °F /  -15.2 °C 992.4 in /  33602.7 hPa SSW 8.0 mph /  12.9 km/h 9.7 mph /  15.6 km/h 98 % 3.0 in /  76.2 mm
09:17 5.8 °F /  -14.6 °C 5.5 °F /  -14.7 °C 992.1 in /  33592.5 hPa SW 14.5 mph /  23.3 km/h 19.3 mph /  31.1 km/h 98 % 2.5 in /  63.5 mm
09:52 8.1 °F /  -13.3 °C 7.8 °F /  -13.4 °C 991.1 in /  33558.6 hPa SW 22.5 mph /  36.2 km/h 37.0 mph /  59.5 km/h 98 % 2.3 in /  58.42 mm
09:57 8.3 °F /  -13.2 °C 8.0 °F /  -13.3 °C 990.7 in /  33545.1 hPa SW 29.0 mph /  46.7 km/h 35.4 mph /  57 km/h 98 % 2.3 in /  58.42 mm
10:02 8.4 °F /  -13.1 °C 8.1 °F /  -13.3 °C 991.1 in /  33558.6 hPa West 11.3 mph /  18.2 km/h 35.4 mph /  57 km/h 98 % 2.3 in /  58.42 mm
10:12 8.7 °F /  -12.9 °C 8.4 °F /  -13.1 °C 990.4 in /  33534.9 hPa SW 20.9 mph /  33.6 km/h 30.6 mph /  49.2 km/h 98 % 3.0 in /  76.2 mm
10:17 8.8 °F /  -12.9 °C 8.3 °F /  -13.2 °C 990.4 in /  33534.9 hPa SW 27.4 mph /  44.1 km/h 43.4 mph /  69.8 km/h 97 % 3.0 in /  76.2 mm
10:27 9.1 °F /  -12.7 °C 8.6 °F /  -13 °C 990.4 in /  33534.9 hPa WSW 30.6 mph /  49.2 km/h 43.4 mph /  69.8 km/h 97 % 3.3 in /  83.82 mm
10:32 9.2 °F /  -12.7 °C 8.6 °F /  -13 °C 990.4 in /  33534.9 hPa WSW 20.9 mph /  33.6 km/h 43.4 mph /  69.8 km/h 96 % 3.3 in /  83.82 mm
10:37 9.2 °F /  -12.7 °C 8.6 °F /  -13 °C 990.7 in /  33545.1 hPa WSW 27.4 mph /  44.1 km/h 45.1 mph /  72.6 km/h 96 % 4.1 in /  104.14 mm
10:42 9.3 °F /  -12.6 °C 8.7 °F /  -12.9 °C 991.1 in /  33558.6 hPa SW 27.4 mph /  44.1 km/h 45.1 mph /  72.6 km/h 96 % 4.3 in /  109.22 mm
10:52 9.7 °F /  -12.4 °C 9.1 °F /  -12.7 °C 990.7 in /  33545.1 hPa West 16.1 mph /  25.9 km/h 38.6 mph /  62.1 km/h 96 % 4.8 in /  121.92 mm
11:12 10.3 °F /  -12.1 °C 9.5 °F /  -12.5 °C 990.1 in /  33524.8 hPa SW 22.5 mph /  36.2 km/h 45.1 mph /  72.6 km/h 95 % 4.3 in /  109.22 mm
11:17 10.4 °F /  -12 °C 9.6 °F /  -12.4 °C 990.4 in /  33534.9 hPa WSW 25.7 mph /  41.4 km/h 40.2 mph /  64.7 km/h 95 % 4.1 in /  104.14 mm
11:22 10.5 °F /  -11.9 °C 9.7 °F /  -12.4 °C 990.4 in /  33534.9 hPa SW 29.0 mph /  46.7 km/h 40.2 mph /  64.7 km/h 95 % 3.6 in /  91.44 mm
11:32 10.8 °F /  -11.8 °C 10.0 °F /  -12.2 °C 990.4 in /  33534.9 hPa WSW 30.6 mph /  49.2 km/h 43.4 mph /  69.8 km/h 95 % 3.3 in /  83.82 mm
11:37 10.9 °F /  -11.7 °C 10.0 °F /  -12.2 °C 990.4 in /  33534.9 hPa WSW 19.3 mph /  31.1 km/h 43.4 mph /  69.8 km/h 94 % 2.3 in /  58.42 mm
11:42 11.1 °F /  -11.6 °C 10.2 °F /  -12.1 °C 990.1 in /  33524.8 hPa WSW 37.0 mph /  59.5 km/h 43.4 mph /  69.8 km/h 94 % 2.0 in /  50.8 mm
11:47 11.2 °F /  -11.6 °C 10.1 °F /  -12.2 °C 990.1 in /  33524.8 hPa WSW 27.4 mph /  44.1 km/h 46.7 mph /  75.2 km/h 93 % 1.3 in /  33.02 mm
11:57 11.4 °F /  -11.4 °C 10.1 °F /  -12.2 °C 990.4 in /  33534.9 hPa WSW 29.0 mph /  46.7 km/h 46.7 mph /  75.2 km/h 92 % 0.5 in /  12.7 mm
12:02 11.4 °F /  -11.4 °C 10.0 °F /  -12.2 °C 990.4 in /  33534.9 hPa WSW 20.9 mph /  33.6 km/h 46.7 mph /  75.2 km/h 91 % 0.5 in /  12.7 mm
12:12 11.5 °F /  -11.4 °C 9.9 °F /  -12.3 °C 990.1 in /  33524.8 hPa SW 29.0 mph /  46.7 km/h 59.5 mph /  95.8 km/h 90 % 0.3 in /  7.62 mm
12:17 11.5 °F /  -11.4 °C 9.7 °F /  -12.4 °C 990.4 in /  33534.9 hPa WNW 29.0 mph /  46.7 km/h 46.7 mph /  75.2 km/h 89 % 0.3 in /  7.62 mm
12:22 11.6 °F /  -11.3 °C 9.3 °F /  -12.6 °C 990.4 in /  33534.9 hPa WSW 30.6 mph /  49.2 km/h 48.3 mph /  77.7 km/h 86 % 0.3 in /  7.62 mm
12:32 11.5 °F /  -11.4 °C 8.7 °F /  -12.9 °C 990.7 in /  33545.1 hPa West 32.2 mph /  51.8 km/h 48.3 mph /  77.7 km/h 83 % 0.3 in /  7.62 mm
12:37 11.4 °F /  -11.4 °C 8.8 °F /  -12.9 °C 991.1 in /  33558.6 hPa WSW 12.9 mph /  20.8 km/h 53.1 mph /  85.5 km/h 84 % 0.0 in /  0 mm
12:42 11.4 °F /  -11.4 °C 8.3 °F /  -13.2 °C 991.1 in /  33558.6 hPa WNW 20.9 mph /  33.6 km/h 53.1 mph /  85.5 km/h 81 % 0.0 in /  0 mm
12:52 11.5 °F /  -11.4 °C 7.2 °F /  -13.8 °C 991.4 in /  33568.8 hPa West 45.1 mph /  72.6 km/h 45.1 mph /  72.6 km/h 75 % 0.0 in /  0 mm
12:57 11.4 °F /  -11.4 °C 7.1 °F /  -13.8 °C 991.4 in /  33568.8 hPa West 17.7 mph /  28.5 km/h 59.5 mph /  95.8 km/h 75 % 0.0 in /  0 mm
13:07 11.3 °F /  -11.5 °C 7.8 °F /  -13.4 °C 991.4 in /  33568.8 hPa WSW 19.3 mph /  31.1 km/h 51.5 mph /  82.9 km/h 79 % 0.0 in /  0 mm
13:12 11.2 °F /  -11.6 °C 8.1 °F /  -13.3 °C 991.1 in /  33558.6 hPa WSW 27.4 mph /  44.1 km/h 51.5 mph /  82.9 km/h 81 % 0.0 in /  0 mm
13:17 11.1 °F /  -11.6 °C 8.0 °F /  -13.3 °C 991.1 in /  33558.6 hPa WSW 24.1 mph /  38.8 km/h 38.6 mph /  62.1 km/h 81 % 0.0 in /  0 mm
13:22 11.1 °F /  -11.6 °C 7.8 °F /  -13.4 °C 991.1 in /  33558.6 hPa WSW 14.5 mph /  23.3 km/h 38.6 mph /  62.1 km/h 80 % 0.0 in /  0 mm
13:27 11.1 °F /  -11.6 °C 7.6 °F /  -13.6 °C 991.4 in /  33568.8 hPa WNW 22.5 mph /  36.2 km/h 41.8 mph /  67.3 km/h 79 % 0.0 in /  0 mm
13:32 11.0 °F /  -11.7 °C 7.7 °F /  -13.5 °C 991.4 in /  33568.8 hPa SW 9.7 mph /  15.6 km/h 41.8 mph /  67.3 km/h 80 % 0.0 in /  0 mm
13:47 10.8 °F /  -11.8 °C 7.3 °F /  -13.7 °C 991.4 in /  33568.8 hPa West 19.3 mph /  31.1 km/h 51.5 mph /  82.9 km/h 79 % 0.0 in /  0 mm
13:52 10.8 °F /  -11.8 °C 7.1 °F /  -13.8 °C 991.4 in /  33568.8 hPa West 19.3 mph /  31.1 km/h 45.1 mph /  72.6 km/h 78 % 0.0 in /  0 mm
14:02 10.8 °F /  -11.8 °C 7.1 °F /  -13.8 °C 991.4 in /  33568.8 hPa WSW 33.8 mph /  54.4 km/h 38.6 mph /  62.1 km/h 78 % 0.0 in /  0 mm
14:07 10.7 °F /  -11.8 °C 7.2 °F /  -13.8 °C 991.4 in /  33568.8 hPa WSW 14.5 mph /  23.3 km/h 38.6 mph /  62.1 km/h 79 % 0.0 in /  0 mm
14:17 10.7 °F /  -11.8 °C 7.0 °F /  -13.9 °C 991.4 in /  33568.8 hPa West 14.5 mph /  23.3 km/h 41.8 mph /  67.3 km/h 78 % 0.0 in /  0 mm
14:22 10.7 °F /  -11.8 °C 7.2 °F /  -13.8 °C 991.1 in /  33558.6 hPa West 14.5 mph /  23.3 km/h 30.6 mph /  49.2 km/h 79 % 0.0 in /  0 mm
14:37 10.6 °F /  -11.9 °C 7.3 °F /  -13.7 °C 990.7 in /  33545.1 hPa West 17.7 mph /  28.5 km/h 37.0 mph /  59.5 km/h 80 % 0.0 in /  0 mm
14:42 10.7 °F /  -11.8 °C 7.4 °F /  -13.7 °C 990.7 in /  33545.1 hPa SW 14.5 mph /  23.3 km/h 37.0 mph /  59.5 km/h 80 % 0.0 in /  0 mm
14:47 10.7 °F /  -11.8 °C 7.6 °F /  -13.6 °C 990.7 in /  33545.1 hPa SW 25.7 mph /  41.4 km/h 35.4 mph /  57 km/h 81 % 0.0 in /  0 mm
14:57 10.6 °F /  -11.9 °C 7.5 °F /  -13.6 °C 990.7 in /  33545.1 hPa West 19.3 mph /  31.1 km/h 35.4 mph /  57 km/h 81 % 0.0 in /  0 mm
15:02 10.5 °F /  -11.9 °C 7.6 °F /  -13.6 °C 990.7 in /  33545.1 hPa SSW 11.3 mph /  18.2 km/h 32.2 mph /  51.8 km/h 82 % 0.0 in /  0 mm
15:12 10.5 °F /  -11.9 °C 7.4 °F /  -13.7 °C 990.4 in /  33534.9 hPa SW 20.9 mph /  33.6 km/h 32.2 mph /  51.8 km/h 81 % 0.0 in /  0 mm
15:17 10.5 °F /  -11.9 °C 7.2 °F /  -13.8 °C 990.7 in /  33545.1 hPa West 12.9 mph /  20.8 km/h 38.6 mph /  62.1 km/h 80 % 0.0 in /  0 mm
15:22 10.4 °F /  -12 °C 7.1 °F /  -13.8 °C 990.7 in /  33545.1 hPa SW 16.1 mph /  25.9 km/h 38.6 mph /  62.1 km/h 80 % 0.0 in /  0 mm
15:27 10.4 °F /  -12 °C 7.3 °F /  -13.7 °C 990.7 in /  33545.1 hPa WSW 12.9 mph /  20.8 km/h 40.2 mph /  64.7 km/h 81 % 0.0 in /  0 mm
15:32 10.4 °F /  -12 °C 7.5 °F /  -13.6 °C 990.7 in /  33545.1 hPa WSW 19.3 mph /  31.1 km/h 40.2 mph /  64.7 km/h 82 % 0.0 in /  0 mm
15:42 10.3 °F /  -12.1 °C 7.5 °F /  -13.6 °C 990.7 in /  33545.1 hPa SW 19.3 mph /  31.1 km/h 35.4 mph /  57 km/h 83 % 0.0 in /  0 mm
15:52 10.3 °F /  -12.1 °C 7.7 °F /  -13.5 °C 990.4 in /  33534.9 hPa South 17.7 mph /  28.5 km/h 27.4 mph /  44.1 km/h 84 % 0.0 in /  0 mm
15:57 10.3 °F /  -12.1 °C 7.7 °F /  -13.5 °C 990.4 in /  33534.9 hPa SW 29.0 mph /  46.7 km/h 29.0 mph /  46.7 km/h 84 % 0.0 in /  0 mm
16:02 10.3 °F /  -12.1 °C 7.7 °F /  -13.5 °C 990.4 in /  33534.9 hPa West 19.3 mph /  31.1 km/h 30.6 mph /  49.2 km/h 84 % 0.0 in /  0 mm
16:12 10.3 °F /  -12.1 °C 7.7 °F /  -13.5 °C 990.4 in /  33534.9 hPa SW 20.9 mph /  33.6 km/h 38.6 mph /  62.1 km/h 84 % 0.0 in /  0 mm
16:17 10.3 °F /  -12.1 °C 7.5 °F /  -13.6 °C 990.4 in /  33534.9 hPa SW 14.5 mph /  23.3 km/h 38.6 mph /  62.1 km/h 83 % 0.0 in /  0 mm
16:22 10.2 °F /  -12.1 °C 7.4 °F /  -13.7 °C 990.4 in /  33534.9 hPa WSW 24.1 mph /  38.8 km/h 35.4 mph /  57 km/h 83 % 0.0 in /  0 mm
16:32 10.2 °F /  -12.1 °C 7.4 °F /  -13.7 °C 990.4 in /  33534.9 hPa SSW 19.3 mph /  31.1 km/h 35.4 mph /  57 km/h 83 % 0.0 in /  0 mm
16:42 10.1 °F /  -12.2 °C 7.3 °F /  -13.7 °C 990.1 in /  33524.8 hPa SSW 14.5 mph /  23.3 km/h 32.2 mph /  51.8 km/h 83 % 0.0 in /  0 mm
16:47 10.1 °F /  -12.2 °C 7.2 °F /  -13.8 °C 989.7 in /  33511.2 hPa SW 19.3 mph /  31.1 km/h 40.2 mph /  64.7 km/h 82 % 0.0 in /  0 mm
16:57 10.1 °F /  -12.2 °C 6.8 °F /  -14 °C 989.7 in /  33511.2 hPa WSW 27.4 mph /  44.1 km/h 40.2 mph /  64.7 km/h 80 % 0.0 in /  0 mm
17:02 10.1 °F /  -12.2 °C 6.8 °F /  -14 °C 989.7 in /  33511.2 hPa WSW 30.6 mph /  49.2 km/h 37.0 mph /  59.5 km/h 80 % 0.0 in /  0 mm
17:12 9.9 °F /  -12.3 °C 6.8 °F /  -14 °C 989.4 in /  33501.1 hPa SW 19.3 mph /  31.1 km/h 37.0 mph /  59.5 km/h 81 % 0.0 in /  0 mm
17:22 9.9 °F /  -12.3 °C 6.8 °F /  -14 °C 989.4 in /  33501.1 hPa SW 14.5 mph /  23.3 km/h 33.8 mph /  54.4 km/h 81 % 0.0 in /  0 mm
17:27 9.9 °F /  -12.3 °C 7.0 °F /  -13.9 °C 989.4 in /  33501.1 hPa SW 19.3 mph /  31.1 km/h 33.8 mph /  54.4 km/h 82 % 0.0 in /  0 mm
17:42 9.8 °F /  -12.3 °C 6.9 °F /  -13.9 °C 989.4 in /  33501.1 hPa SW 19.3 mph /  31.1 km/h 40.2 mph /  64.7 km/h 82 % 0.0 in /  0 mm
17:52 9.9 °F /  -12.3 °C 7.0 °F /  -13.9 °C 989.1 in /  33490.9 hPa SW 24.1 mph /  38.8 km/h 33.8 mph /  54.4 km/h 82 % 0.0 in /  0 mm
18:02 9.8 °F /  -12.3 °C 7.4 °F /  -13.7 °C 989.1 in /  33490.9 hPa SW 30.6 mph /  49.2 km/h 41.8 mph /  67.3 km/h 85 % 0.0 in /  0 mm
18:07 9.7 °F /  -12.4 °C 7.3 °F /  -13.7 °C 989.1 in /  33490.9 hPa SW 27.4 mph /  44.1 km/h 41.8 mph /  67.3 km/h 85 % 0.0 in /  0 mm
18:27 9.4 °F /  -12.6 °C 6.8 °F /  -14 °C 989.1 in /  33490.9 hPa SW 24.1 mph /  38.8 km/h 41.8 mph /  67.3 km/h 84 % 0.0 in /  0 mm
18:32 9.4 °F /  -12.6 °C 6.7 °F /  -14.1 °C 989.4 in /  33501.1 hPa SW 30.6 mph /  49.2 km/h 41.8 mph /  67.3 km/h 83 % 0.0 in /  0 mm
18:37 9.4 °F /  -12.6 °C 6.5 °F /  -14.2 °C 989.4 in /  33501.1 hPa SSW 37.0 mph /  59.5 km/h 45.1 mph /  72.6 km/h 82 % 0.0 in /  0 mm
18:42 9.4 °F /  -12.6 °C 6.5 °F /  -14.2 °C 989.4 in /  33501.1 hPa SW 30.6 mph /  49.2 km/h 45.1 mph /  72.6 km/h 82 % 0.0 in /  0 mm
18:57 9.2 °F /  -12.7 °C 6.5 °F /  -14.2 °C 989.4 in /  33501.1 hPa SW 19.3 mph /  31.1 km/h 57.9 mph /  93.2 km/h 83 % 0.0 in /  0 mm
19:02 9.0 °F /  -12.8 °C 6.6 °F /  -14.1 °C 989.4 in /  33501.1 hPa SW 29.0 mph /  46.7 km/h 57.9 mph /  93.2 km/h 85 % 0.0 in /  0 mm
19:12 8.6 °F /  -13 °C 6.6 °F /  -14.1 °C 989.1 in /  33490.9 hPa SW 35.4 mph /  57 km/h 51.5 mph /  82.9 km/h 87 % 0.0 in /  0 mm
19:17 8.6 °F /  -13 °C 6.7 °F /  -14.1 °C 989.1 in /  33490.9 hPa WSW 27.4 mph /  44.1 km/h 51.5 mph /  82.9 km/h 88 % 0.0 in /  0 mm
19:22 8.5 °F /  -13.1 °C 6.6 °F /  -14.1 °C 989.1 in /  33490.9 hPa West 25.7 mph /  41.4 km/h 43.4 mph /  69.8 km/h 88 % 0.0 in /  0 mm
19:27 8.4 °F /  -13.1 °C 6.7 °F /  -14.1 °C 989.1 in /  33490.9 hPa SW 25.7 mph /  41.4 km/h 45.1 mph /  72.6 km/h 89 % 0.0 in /  0 mm
19:32 8.4 °F /  -13.1 °C 6.7 °F /  -14.1 °C 989.1 in /  33490.9 hPa SW 22.5 mph /  36.2 km/h 45.1 mph /  72.6 km/h 89 % 0.0 in /  0 mm
19:37 8.4 °F /  -13.1 °C 6.9 °F /  -13.9 °C 989.1 in /  33490.9 hPa SW 17.7 mph /  28.5 km/h 45.1 mph /  72.6 km/h 90 % 0.0 in /  0 mm
19:52 8.3 °F /  -13.2 °C 6.9 °F /  -13.9 °C 989.1 in /  33490.9 hPa WSW 20.9 mph /  33.6 km/h 41.8 mph /  67.3 km/h 91 % 0.0 in /  0 mm
19:57 8.3 °F /  -13.2 °C 6.9 °F /  -13.9 °C 989.1 in /  33490.9 hPa SW 25.7 mph /  41.4 km/h 40.2 mph /  64.7 km/h 91 % 0.0 in /  0 mm
20:07 8.3 °F /  -13.2 °C 6.9 °F /  -13.9 °C 989.1 in /  33490.9 hPa SW 19.3 mph /  31.1 km/h 40.2 mph /  64.7 km/h 91 % 0.0 in /  0 mm
20:17 8.3 °F /  -13.2 °C 7.1 °F /  -13.8 °C 988.7 in /  33477.4 hPa SW 19.3 mph /  31.1 km/h 33.8 mph /  54.4 km/h 92 % 0.0 in /  0 mm
20:22 8.3 °F /  -13.2 °C 7.1 °F /  -13.8 °C 988.7 in /  33477.4 hPa SW 27.4 mph /  44.1 km/h 33.8 mph /  54.4 km/h 92 % 0.0 in /  0 mm
20:27 8.3 °F /  -13.2 °C 6.9 °F /  -13.9 °C 988.7 in /  33477.4 hPa SW 16.1 mph /  25.9 km/h 37.0 mph /  59.5 km/h 91 % 0.0 in /  0 mm
20:37 8.3 °F /  -13.2 °C 7.1 °F /  -13.8 °C 988.7 in /  33477.4 hPa WSW 20.9 mph /  33.6 km/h 37.0 mph /  59.5 km/h 92 % 0.0 in /  0 mm
20:47 8.3 °F /  -13.2 °C 7.1 °F /  -13.8 °C 988.7 in /  33477.4 hPa SW 9.7 mph /  15.6 km/h 32.2 mph /  51.8 km/h 92 % 0.0 in /  0 mm
20:52 8.3 °F /  -13.2 °C 7.1 °F /  -13.8 °C 988.7 in /  33477.4 hPa SSW 22.5 mph /  36.2 km/h 32.2 mph /  51.8 km/h 92 % 0.0 in /  0 mm
21:02 8.2 °F /  -13.2 °C 7.1 °F /  -13.8 °C 988.7 in /  33477.4 hPa SW 17.7 mph /  28.5 km/h 30.6 mph /  49.2 km/h 93 % 0.3 in /  7.62 mm
21:07 8.2 °F /  -13.2 °C 7.1 °F /  -13.8 °C 988.4 in /  33467.2 hPa SW 16.1 mph /  25.9 km/h 30.6 mph /  49.2 km/h 93 % 0.3 in /  7.62 mm
21:17 8.1 °F /  -13.3 °C 7.2 °F /  -13.8 °C 988.7 in /  33477.4 hPa SW 12.9 mph /  20.8 km/h 30.6 mph /  49.2 km/h 94 % 0.3 in /  7.62 mm
21:22 8.1 °F /  -13.3 °C 7.2 °F /  -13.8 °C 988.7 in /  33477.4 hPa SSW 19.3 mph /  31.1 km/h 30.6 mph /  49.2 km/h 94 % 0.3 in /  7.62 mm
21:27 8.1 °F /  -13.3 °C 7.2 °F /  -13.8 °C 988.7 in /  33477.4 hPa SW 17.7 mph /  28.5 km/h 29.0 mph /  46.7 km/h 94 % 0.5 in /  12.7 mm
21:32 8.0 °F /  -13.3 °C 7.1 °F /  -13.8 °C 988.7 in /  33477.4 hPa South 17.7 mph /  28.5 km/h 29.0 mph /  46.7 km/h 94 % 0.5 in /  12.7 mm
21:37 7.9 °F /  -13.4 °C 7.0 °F /  -13.9 °C 988.4 in /  33467.2 hPa South 9.7 mph /  15.6 km/h 29.0 mph /  46.7 km/h 94 % 0.5 in /  12.7 mm
21:42 7.8 °F /  -13.4 °C 6.9 °F /  -13.9 °C 988.4 in /  33467.2 hPa SW 11.3 mph /  18.2 km/h 25.7 mph /  41.4 km/h 94 % 0.8 in /  20.32 mm
22:02 7.8 °F /  -13.4 °C 7.0 °F /  -13.9 °C 987.7 in /  33443.5 hPa South 9.7 mph /  15.6 km/h 20.9 mph /  33.6 km/h 95 % 0.5 in /  12.7 mm
22:12 7.8 °F /  -13.4 °C 7.0 °F /  -13.9 °C 987.4 in /  33433.4 hPa SSW 6.4 mph /  10.3 km/h 17.7 mph /  28.5 km/h 95 % 0.8 in /  20.32 mm
22:17 7.8 °F /  -13.4 °C 7.0 °F /  -13.9 °C 988.0 in /  33453.7 hPa SW 9.7 mph /  15.6 km/h 17.7 mph /  28.5 km/h 95 % 0.8 in /  20.32 mm
22:22 7.8 °F /  -13.4 °C 7.0 °F /  -13.9 °C 988.0 in /  33453.7 hPa SSW 9.7 mph /  15.6 km/h 17.7 mph /  28.5 km/h 95 % 0.5 in /  12.7 mm
22:27 7.7 °F /  -13.5 °C 6.9 °F /  -13.9 °C 988.0 in /  33453.7 hPa SSW 8.0 mph /  12.9 km/h 17.7 mph /  28.5 km/h 95 % 0.5 in /  12.7 mm
22:32 7.7 °F /  -13.5 °C 6.9 °F /  -13.9 °C 987.7 in /  33443.5 hPa SSW 4.8 mph /  7.7 km/h 17.7 mph /  28.5 km/h 95 % 0.5 in /  12.7 mm
22:42 7.7 °F /  -13.5 °C 6.9 °F /  -13.9 °C 987.4 in /  33433.4 hPa SSE 4.8 mph /  7.7 km/h 14.5 mph /  23.3 km/h 95 % 0.3 in /  7.62 mm
22:57 7.8 °F /  -13.4 °C 7.0 °F /  -13.9 °C 987.7 in /  33443.5 hPa SSE 9.7 mph /  15.6 km/h 17.7 mph /  28.5 km/h 95 % 0.3 in /  7.62 mm
23:02 7.7 °F /  -13.5 °C 6.9 °F /  -13.9 °C 987.4 in /  33433.4 hPa South 9.7 mph /  15.6 km/h 17.7 mph /  28.5 km/h 95 % 0.3 in /  7.62 mm
23:22 7.8 °F /  -13.4 °C 6.9 °F /  -13.9 °C 987.4 in /  33433.4 hPa South 17.7 mph /  28.5 km/h 24.1 mph /  38.8 km/h 94 % 0.0 in /  0 mm
23:32 7.8 °F /  -13.4 °C 6.7 °F /  -14.1 °C 987.0 in /  33419.8 hPa South 14.5 mph /  23.3 km/h 29.0 mph /  46.7 km/h 93 % 0.0 in /  0 mm
23:37 7.7 °F /  -13.5 °C 6.6 °F /  -14.1 °C 986.7 in /  33409.7 hPa SSW 9.7 mph /  15.6 km/h 29.0 mph /  46.7 km/h 93 % 0.0 in /  0 mm
23:42 7.6 °F /  -13.6 °C 6.5 °F /  -14.2 °C 986.7 in /  33409.7 hPa SSE 16.1 mph /  25.9 km/h 29.0 mph /  46.7 km/h 93 % 0.0 in /  0 mm
23:52 7.5 °F /  -13.6 °C 6.3 °F /  -14.3 °C 985.7 in /  33375.8 hPa SSE 4.8 mph /  7.7 km/h 19.3 mph /  31.1 km/h 92 % 0.0 in /  0 mm
Meteo18
Compliments of Weather Underground - 4 mb

Script developed by  Jim McMurry - jmcmurry@mwt.net Adapted for the template by  Wim van der Kuil - Leuven-Template.eu

You find our weather info also at:

European Weather Network

Weather Underground

Equipment we use:

Weather-station
Davis Vue

Weather-program
Meteobridge

Weather-server
Raspberry PI 2 B+

Provider
1 and 1

Davis Vue

Meteobridge

Raspberry PI 2 B+

1 and 1